Chiniot, Pakistan
Current Conditions -  °F | °C
As of 4:25 AM on Saturday 25 Oct 2014 (Local Time) from OPLA Reporting Station
Smoke Smoke  
Wind Chill: 68°   Ceiling: Unl
Heat Index: 68°   Visibility: 2.5mi
Dew Point: 59°   Wind: 5mph
Humidity: 73%   Direction: 360°N
Pressure: 29.91"   Gusts: NA
Location:  31.72°N, 72.98°E
Report Text: OPLA 242325Z 36004KT 4000 FU NSC 20/15 Q1013
Loading
Personal Weather Stations






























Interactive Weather Map
Tropical Storm Tracking
New forecast layout! Learn more

10-Day Weather Forecast

Advertisements
Track Severe Weather on mobile